sensor_id;sensor_type;location;lat;lon;timestamp;P1;durP1;ratioP1;P2;durP2;ratioP2
76765;SDS011;65707;52.362;6.588;2023-07-13T00:02:03;8.57;;;1.60;;
76765;SDS011;65707;52.362;6.588;2023-07-13T00:04:32;10.77;;;1.80;;
76765;SDS011;65707;52.362;6.588;2023-07-13T00:06:59;9.68;;;1.63;;
76765;SDS011;65707;52.362;6.588;2023-07-13T00:09:25;8.90;;;1.80;;
76765;SDS011;65707;52.362;6.588;2023-07-13T00:11:53;10.07;;;1.63;;
76765;SDS011;65707;52.362;6.588;2023-07-13T00:14:21;11.52;;;1.60;;
76765;SDS011;65707;52.362;6.588;2023-07-13T00:16:48;10.85;;;1.80;;
76765;SDS011;65707;52.362;6.588;2023-07-13T00:19:15;8.23;;;1.70;;
76765;SDS011;65707;52.362;6.588;2023-07-13T00:21:43;7.75;;;1.52;;
76765;SDS011;65707;52.362;6.588;2023-07-13T00:24:11;7.85;;;1.83;;
76765;SDS011;65707;52.362;6.588;2023-07-13T00:26:39;12.15;;;1.90;;
76765;SDS011;65707;52.362;6.588;2023-07-13T00:29:05;14.13;;;1.83;;
76765;SDS011;65707;52.362;6.588;2023-07-13T00:31:34;12.70;;;1.80;;
76765;SDS011;65707;52.362;6.588;2023-07-13T00:34:01;9.23;;;1.73;;
76765;SDS011;65707;52.362;6.588;2023-07-13T00:36:29;9.35;;;1.70;;
76765;SDS011;65707;52.362;6.588;2023-07-13T00:38:57;10.35;;;1.85;;
76765;SDS011;65707;52.362;6.588;2023-07-13T00:41:24;9.35;;;2.20;;
76765;SDS011;65707;52.362;6.588;2023-07-13T00:43:51;12.13;;;2.03;;
76765;SDS011;65707;52.362;6.588;2023-07-13T00:46:20;8.25;;;1.60;;
76765;SDS011;65707;52.362;6.588;2023-07-13T00:48:49;12.80;;;1.80;;
76765;SDS011;65707;52.362;6.588;2023-07-13T00:51:19;12.65;;;2.35;;
76765;SDS011;65707;52.362;6.588;2023-07-13T00:53:50;12.45;;;2.30;;
76765;SDS011;65707;52.362;6.588;2023-07-13T00:56:20;11.32;;;1.77;;
76765;SDS011;65707;52.362;6.588;2023-07-13T00:58:47;8.70;;;1.85;;
76765;SDS011;65707;52.362;6.588;2023-07-13T01:01:15;13.50;;;1.92;;
76765;SDS011;65707;52.362;6.588;2023-07-13T01:03:43;9.38;;;2.10;;
76765;SDS011;65707;52.362;6.588;2023-07-13T01:06:10;7.30;;;1.80;;
76765;SDS011;65707;52.362;6.588;2023-07-13T01:08:37;8.38;;;2.15;;
76765;SDS011;65707;52.362;6.588;2023-07-13T01:11:05;12.30;;;3.13;;
76765;SDS011;65707;52.362;6.588;2023-07-13T01:13:34;10.23;;;2.13;;
76765;SDS011;65707;52.362;6.588;2023-07-13T01:16:02;13.38;;;2.80;;
76765;SDS011;65707;52.362;6.588;2023-07-13T01:18:33;9.70;;;2.58;;
76765;SDS011;65707;52.362;6.588;2023-07-13T01:21:02;12.48;;;2.70;;
76765;SDS011;65707;52.362;6.588;2023-07-13T01:23:31;12.05;;;2.47;;
76765;SDS011;65707;52.362;6.588;2023-07-13T01:25:59;11.73;;;2.10;;
76765;SDS011;65707;52.362;6.588;2023-07-13T01:28:27;11.18;;;2.40;;
76765;SDS011;65707;52.362;6.588;2023-07-13T01:30:55;9.35;;;2.42;;
76765;SDS011;65707;52.362;6.588;2023-07-13T01:33:24;12.82;;;2.22;;
76765;SDS011;65707;52.362;6.588;2023-07-13T01:35:51;10.60;;;2.35;;
76765;SDS011;65707;52.362;6.588;2023-07-13T01:38:20;11.95;;;2.20;;
76765;SDS011;65707;52.362;6.588;2023-07-13T01:40:48;11.82;;;2.50;;
76765;SDS011;65707;52.362;6.588;2023-07-13T01:43:16;10.77;;;2.67;;
76765;SDS011;65707;52.362;6.588;2023-07-13T01:45:42;12.30;;;2.72;;
76765;SDS011;65707;52.362;6.588;2023-07-13T01:48:09;12.95;;;2.15;;
76765;SDS011;65707;52.362;6.588;2023-07-13T01:50:37;9.05;;;2.28;;
76765;SDS011;65707;52.362;6.588;2023-07-13T01:53:04;12.98;;;2.90;;
76765;SDS011;65707;52.362;6.588;2023-07-13T01:55:33;10.70;;;2.38;;
76765;SDS011;65707;52.362;6.588;2023-07-13T01:58:00;12.57;;;2.50;;
76765;SDS011;65707;52.362;6.588;2023-07-13T02:00:27;11.02;;;2.80;;
76765;SDS011;65707;52.362;6.588;2023-07-13T02:02:54;9.52;;;2.58;;
76765;SDS011;65707;52.362;6.588;2023-07-13T02:05:20;12.68;;;2.97;;
76765;SDS011;65707;52.362;6.588;2023-07-13T02:07:47;11.70;;;2.80;;
76765;SDS011;65707;52.362;6.588;2023-07-13T02:10:14;9.98;;;2.78;;
76765;SDS011;65707;52.362;6.588;2023-07-13T02:12:43;11.10;;;2.63;;
76765;SDS011;65707;52.362;6.588;2023-07-13T02:15:10;13.63;;;3.17;;
76765;SDS011;65707;52.362;6.588;2023-07-13T02:17:37;9.85;;;2.90;;
76765;SDS011;65707;52.362;6.588;2023-07-13T02:20:05;10.57;;;2.80;;
76765;SDS011;65707;52.362;6.588;2023-07-13T02:22:33;12.35;;;2.88;;
76765;SDS011;65707;52.362;6.588;2023-07-13T02:25:00;11.93;;;2.85;;
76765;SDS011;65707;52.362;6.588;2023-07-13T02:27:26;11.65;;;3.15;;
76765;SDS011;65707;52.362;6.588;2023-07-13T02:29:55;11.52;;;2.70;;
76765;SDS011;65707;52.362;6.588;2023-07-13T02:32:22;10.48;;;2.80;;
76765;SDS011;65707;52.362;6.588;2023-07-13T02:34:50;11.32;;;2.80;;
76765;SDS011;65707;52.362;6.588;2023-07-13T02:37:17;7.10;;;2.60;;
76765;SDS011;65707;52.362;6.588;2023-07-13T02:39:44;10.02;;;2.67;;
76765;SDS011;65707;52.362;6.588;2023-07-13T02:42:11;11.52;;;2.78;;
76765;SDS011;65707;52.362;6.588;2023-07-13T02:44:37;12.32;;;2.38;;
76765;SDS011;65707;52.362;6.588;2023-07-13T02:47:06;10.32;;;2.30;;
76765;SDS011;65707;52.362;6.588;2023-07-13T02:49:33;9.63;;;2.60;;
76765;SDS011;65707;52.362;6.588;2023-07-13T02:51:59;10.65;;;2.70;;
76765;SDS011;65707;52.362;6.588;2023-07-13T02:54:26;8.98;;;2.15;;
76765;SDS011;65707;52.362;6.588;2023-07-13T02:56:53;11.80;;;2.92;;
76765;SDS011;65707;52.362;6.588;2023-07-13T02:59:20;14.07;;;2.90;;
76765;SDS011;65707;52.362;6.588;2023-07-13T03:01:46;10.52;;;2.35;;
76765;SDS011;65707;52.362;6.588;2023-07-13T03:04:14;12.43;;;2.78;;
76765;SDS011;65707;52.362;6.588;2023-07-13T03:06:44;9.77;;;2.50;;
76765;SDS011;65707;52.362;6.588;2023-07-13T03:09:11;8.60;;;2.33;;
76765;SDS011;65707;52.362;6.588;2023-07-13T03:11:38;9.00;;;2.42;;
76765;SDS011;65707;52.362;6.588;2023-07-13T03:14:05;8.80;;;2.22;;
76765;SDS011;65707;52.362;6.588;2023-07-13T03:16:31;9.45;;;2.08;;
76765;SDS011;65707;52.362;6.588;2023-07-13T03:18:58;10.25;;;3.05;;
76765;SDS011;65707;52.362;6.588;2023-07-13T03:21:26;8.75;;;2.60;;
76765;SDS011;65707;52.362;6.588;2023-07-13T03:23:53;9.90;;;2.45;;
76765;SDS011;65707;52.362;6.588;2023-07-13T03:26:20;10.95;;;2.50;;
76765;SDS011;65707;52.362;6.588;2023-07-13T03:28:47;11.30;;;2.55;;
76765;SDS011;65707;52.362;6.588;2023-07-13T03:31:15;11.57;;;2.58;;
76765;SDS011;65707;52.362;6.588;2023-07-13T03:33:46;8.85;;;2.95;;
76765;SDS011;65707;52.362;6.588;2023-07-13T03:36:13;10.43;;;2.60;;
76765;SDS011;65707;52.362;6.588;2023-07-13T03:38:45;9.80;;;2.22;;
76765;SDS011;65707;52.362;6.588;2023-07-13T03:41:13;10.27;;;2.45;;
76765;SDS011;65707;52.362;6.588;2023-07-13T03:43:40;11.43;;;3.03;;
76765;SDS011;65707;52.362;6.588;2023-07-13T03:46:07;11.18;;;2.78;;
76765;SDS011;65707;52.362;6.588;2023-07-13T03:48:33;11.52;;;2.85;;
76765;SDS011;65707;52.362;6.588;2023-07-13T03:51:00;12.18;;;3.45;;
76765;SDS011;65707;52.362;6.588;2023-07-13T03:53:27;13.15;;;2.90;;
76765;SDS011;65707;52.362;6.588;2023-07-13T03:55:55;9.80;;;2.63;;
76765;SDS011;65707;52.362;6.588;2023-07-13T03:58:25;16.27;;;2.40;;
76765;SDS011;65707;52.362;6.588;2023-07-13T04:00:53;10.45;;;2.38;;
76765;SDS011;65707;52.362;6.588;2023-07-13T04:03:20;12.15;;;2.72;;
76765;SDS011;65707;52.362;6.588;2023-07-13T04:05:47;12.60;;;2.83;;
76765;SDS011;65707;52.362;6.588;2023-07-13T04:08:14;9.35;;;2.65;;
76765;SDS011;65707;52.362;6.588;2023-07-13T04:10:41;11.35;;;2.60;;
76765;SDS011;65707;52.362;6.588;2023-07-13T04:13:09;10.07;;;2.80;;
76765;SDS011;65707;52.362;6.588;2023-07-13T04:15:36;12.60;;;3.22;;
76765;SDS011;65707;52.362;6.588;2023-07-13T04:18:03;9.77;;;2.83;;
76765;SDS011;65707;52.362;6.588;2023-07-13T04:20:29;11.07;;;2.60;;
76765;SDS011;65707;52.362;6.588;2023-07-13T04:22:57;12.80;;;3.88;;
76765;SDS011;65707;52.362;6.588;2023-07-13T04:25:24;12.50;;;3.30;;
76765;SDS011;65707;52.362;6.588;2023-07-13T04:27:51;15.35;;;3.33;;
76765;SDS011;65707;52.362;6.588;2023-07-13T04:30:20;15.93;;;2.88;;
76765;SDS011;65707;52.362;6.588;2023-07-13T04:32:47;14.27;;;3.40;;
76765;SDS011;65707;52.362;6.588;2023-07-13T04:35:13;12.50;;;3.05;;
76765;SDS011;65707;52.362;6.588;2023-07-13T04:37:40;13.88;;;3.63;;
76765;SDS011;65707;52.362;6.588;2023-07-13T04:40:07;13.20;;;3.17;;
76765;SDS011;65707;52.362;6.588;2023-07-13T04:45:04;15.38;;;2.97;;
76765;SDS011;65707;52.362;6.588;2023-07-13T04:47:33;10.98;;;3.28;;
76765;SDS011;65707;52.362;6.588;2023-07-13T04:50:00;12.68;;;3.47;;
76765;SDS011;65707;52.362;6.588;2023-07-13T04:52:26;10.88;;;4.13;;
76765;SDS011;65707;52.362;6.588;2023-07-13T04:54:53;12.75;;;3.60;;
76765;SDS011;65707;52.362;6.588;2023-07-13T04:57:20;11.95;;;3.00;;
76765;SDS011;65707;52.362;6.588;2023-07-13T04:59:47;12.82;;;3.17;;
76765;SDS011;65707;52.362;6.588;2023-07-13T05:02:13;15.02;;;4.03;;
76765;SDS011;65707;52.362;6.588;2023-07-13T05:04:42;14.43;;;3.47;;
76765;SDS011;65707;52.362;6.588;2023-07-13T05:07:09;16.63;;;4.00;;
76765;SDS011;65707;52.362;6.588;2023-07-13T05:09:36;13.55;;;3.40;;
76765;SDS011;65707;52.362;6.588;2023-07-13T05:12:05;11.15;;;3.60;;
76765;SDS011;65707;52.362;6.588;2023-07-13T05:14:33;13.38;;;4.00;;
76765;SDS011;65707;52.362;6.588;2023-07-13T05:16:59;11.95;;;3.75;;
76765;SDS011;65707;52.362;6.588;2023-07-13T05:19:26;10.82;;;3.72;;
76765;SDS011;65707;52.362;6.588;2023-07-13T05:21:54;13.75;;;3.50;;
76765;SDS011;65707;52.362;6.588;2023-07-13T05:24:21;13.18;;;3.30;;
76765;SDS011;65707;52.362;6.588;2023-07-13T05:26:48;13.30;;;3.08;;
76765;SDS011;65707;52.362;6.588;2023-07-13T05:29:15;13.88;;;3.80;;
76765;SDS011;65707;52.362;6.588;2023-07-13T05:31:42;12.00;;;4.00;;
76765;SDS011;65707;52.362;6.588;2023-07-13T05:34:08;13.77;;;3.45;;
76765;SDS011;65707;52.362;6.588;2023-07-13T05:36:35;13.43;;;3.58;;
76765;SDS011;65707;52.362;6.588;2023-07-13T05:39:04;12.63;;;3.17;;
76765;SDS011;65707;52.362;6.588;2023-07-13T05:41:31;17.80;;;4.40;;
76765;SDS011;65707;52.362;6.588;2023-07-13T05:43:57;16.67;;;4.22;;
76765;SDS011;65707;52.362;6.588;2023-07-13T05:46:24;16.48;;;3.60;;
76765;SDS011;65707;52.362;6.588;2023-07-13T05:48:51;13.73;;;3.70;;
76765;SDS011;65707;52.362;6.588;2023-07-13T05:51:18;12.80;;;3.58;;
76765;SDS011;65707;52.362;6.588;2023-07-13T05:53:44;16.63;;;4.13;;
76765;SDS011;65707;52.362;6.588;2023-07-13T05:56:13;19.55;;;3.90;;
76765;SDS011;65707;52.362;6.588;2023-07-13T05:58:39;15.38;;;3.97;;
76765;SDS011;65707;52.362;6.588;2023-07-13T06:01:08;13.85;;;3.90;;
76765;SDS011;65707;52.362;6.588;2023-07-13T06:03:37;13.93;;;3.40;;
76765;SDS011;65707;52.362;6.588;2023-07-13T06:06:03;17.25;;;4.43;;
76765;SDS011;65707;52.362;6.588;2023-07-13T06:08:31;13.27;;;3.90;;
76765;SDS011;65707;52.362;6.588;2023-07-13T06:11:02;17.10;;;4.45;;
76765;SDS011;65707;52.362;6.588;2023-07-13T06:13:31;14.27;;;3.83;;
76765;SDS011;65707;52.362;6.588;2023-07-13T06:15:58;13.52;;;2.95;;
76765;SDS011;65707;52.362;6.588;2023-07-13T06:18:25;14.45;;;4.00;;
76765;SDS011;65707;52.362;6.588;2023-07-13T06:20:52;15.70;;;4.75;;
76765;SDS011;65707;52.362;6.588;2023-07-13T06:23:18;17.48;;;4.30;;
76765;SDS011;65707;52.362;6.588;2023-07-13T06:25:45;15.23;;;4.10;;
76765;SDS011;65707;52.362;6.588;2023-07-13T06:28:12;13.10;;;3.95;;
76765;SDS011;65707;52.362;6.588;2023-07-13T06:30:40;14.13;;;4.32;;
76765;SDS011;65707;52.362;6.588;2023-07-13T06:33:07;17.65;;;4.65;;
76765;SDS011;65707;52.362;6.588;2023-07-13T06:35:33;17.88;;;4.85;;
76765;SDS011;65707;52.362;6.588;2023-07-13T06:38:01;16.92;;;5.00;;
76765;SDS011;65707;52.362;6.588;2023-07-13T06:40:28;16.63;;;5.05;;
76765;SDS011;65707;52.362;6.588;2023-07-13T06:42:55;18.98;;;4.68;;
76765;SDS011;65707;52.362;6.588;2023-07-13T06:45:22;17.27;;;5.15;;
76765;SDS011;65707;52.362;6.588;2023-07-13T06:47:50;16.05;;;5.50;;
76765;SDS011;65707;52.362;6.588;2023-07-13T06:50:17;16.90;;;5.20;;
76765;SDS011;65707;52.362;6.588;2023-07-13T06:52:43;15.60;;;5.15;;
76765;SDS011;65707;52.362;6.588;2023-07-13T06:55:10;14.75;;;5.43;;
76765;SDS011;65707;52.362;6.588;2023-07-13T06:57:37;17.60;;;6.18;;
76765;SDS011;65707;52.362;6.588;2023-07-13T07:00:04;15.20;;;5.53;;
76765;SDS011;65707;52.362;6.588;2023-07-13T07:02:35;16.77;;;6.35;;
76765;SDS011;65707;52.362;6.588;2023-07-13T07:05:03;14.50;;;5.15;;
76765;SDS011;65707;52.362;6.588;2023-07-13T07:07:30;19.55;;;6.55;;
76765;SDS011;65707;52.362;6.588;2023-07-13T07:09:57;14.13;;;5.97;;
76765;SDS011;65707;52.362;6.588;2023-07-13T07:12:23;18.25;;;7.30;;
76765;SDS011;65707;52.362;6.588;2023-07-13T07:14:50;18.02;;;7.05;;
76765;SDS011;65707;52.362;6.588;2023-07-13T07:17:17;22.23;;;7.03;;
76765;SDS011;65707;52.362;6.588;2023-07-13T07:19:44;16.98;;;7.38;;
76765;SDS011;65707;52.362;6.588;2023-07-13T07:22:12;20.27;;;7.25;;
76765;SDS011;65707;52.362;6.588;2023-07-13T07:24:39;16.45;;;6.57;;
76765;SDS011;65707;52.362;6.588;2023-07-13T07:27:06;16.20;;;8.05;;
76765;SDS011;65707;52.362;6.588;2023-07-13T07:29:32;17.52;;;7.80;;
76765;SDS011;65707;52.362;6.588;2023-07-13T07:31:59;18.95;;;7.60;;
76765;SDS011;65707;52.362;6.588;2023-07-13T07:34:26;15.85;;;6.88;;
76765;SDS011;65707;52.362;6.588;2023-07-13T07:36:53;16.00;;;6.38;;
76765;SDS011;65707;52.362;6.588;2023-07-13T07:39:21;18.45;;;7.10;;
76765;SDS011;65707;52.362;6.588;2023-07-13T07:41:48;16.23;;;7.30;;
76765;SDS011;65707;52.362;6.588;2023-07-13T07:44:15;16.27;;;7.28;;
76765;SDS011;65707;52.362;6.588;2023-07-13T07:46:42;16.52;;;6.85;;
76765;SDS011;65707;52.362;6.588;2023-07-13T07:49:08;16.42;;;6.85;;
76765;SDS011;65707;52.362;6.588;2023-07-13T07:51:35;18.85;;;8.27;;
76765;SDS011;65707;52.362;6.588;2023-07-13T07:54:02;16.42;;;7.25;;
76765;SDS011;65707;52.362;6.588;2023-07-13T07:56:31;17.65;;;6.95;;
76765;SDS011;65707;52.362;6.588;2023-07-13T07:58:58;20.98;;;7.75;;
76765;SDS011;65707;52.362;6.588;2023-07-13T08:01:25;21.98;;;8.00;;
76765;SDS011;65707;52.362;6.588;2023-07-13T08:03:52;16.80;;;6.65;;
76765;SDS011;65707;52.362;6.588;2023-07-13T08:06:18;18.40;;;7.88;;
76765;SDS011;65707;52.362;6.588;2023-07-13T08:08:47;14.10;;;6.90;;
76765;SDS011;65707;52.362;6.588;2023-07-13T08:11:13;16.05;;;7.00;;
76765;SDS011;65707;52.362;6.588;2023-07-13T08:13:41;18.85;;;6.97;;
76765;SDS011;65707;52.362;6.588;2023-07-13T08:16:08;18.23;;;6.68;;
76765;SDS011;65707;52.362;6.588;2023-07-13T08:18:35;16.63;;;7.22;;
76765;SDS011;65707;52.362;6.588;2023-07-13T08:21:03;14.82;;;7.72;;
76765;SDS011;65707;52.362;6.588;2023-07-13T08:23:30;16.55;;;6.70;;
76765;SDS011;65707;52.362;6.588;2023-07-13T08:25:57;17.50;;;6.55;;
76765;SDS011;65707;52.362;6.588;2023-07-13T08:28:26;15.95;;;7.07;;
76765;SDS011;65707;52.362;6.588;2023-07-13T08:30:55;15.75;;;6.40;;
76765;SDS011;65707;52.362;6.588;2023-07-13T08:33:26;16.02;;;6.63;;
76765;SDS011;65707;52.362;6.588;2023-07-13T08:35:53;15.73;;;6.63;;
76765;SDS011;65707;52.362;6.588;2023-07-13T08:38:20;17.02;;;8.23;;
76765;SDS011;65707;52.362;6.588;2023-07-13T08:40:53;11.85;;;6.32;;
76765;SDS011;65707;52.362;6.588;2023-07-13T08:43:23;15.52;;;7.50;;
76765;SDS011;65707;52.362;6.588;2023-07-13T08:45:53;15.95;;;6.63;;
76765;SDS011;65707;52.362;6.588;2023-07-13T08:48:27;17.58;;;7.28;;
76765;SDS011;65707;52.362;6.588;2023-07-13T08:50:56;19.92;;;6.70;;
76765;SDS011;65707;52.362;6.588;2023-07-13T08:53:28;15.50;;;6.43;;
76765;SDS011;65707;52.362;6.588;2023-07-13T08:56:01;17.48;;;7.30;;
76765;SDS011;65707;52.362;6.588;2023-07-13T08:58:28;13.73;;;6.82;;
76765;SDS011;65707;52.362;6.588;2023-07-13T09:00:58;15.75;;;7.18;;
76765;SDS011;65707;52.362;6.588;2023-07-13T09:03:31;16.02;;;7.85;;
76765;SDS011;65707;52.362;6.588;2023-07-13T09:06:04;13.90;;;7.10;;
76765;SDS011;65707;52.362;6.588;2023-07-13T09:08:35;15.05;;;7.60;;
76765;SDS011;65707;52.362;6.588;2023-07-13T09:11:16;15.63;;;7.03;;
76765;SDS011;65707;52.362;6.588;2023-07-13T09:13:55;13.57;;;6.13;;
76765;SDS011;65707;52.362;6.588;2023-07-13T09:16:29;15.98;;;6.50;;
76765;SDS011;65707;52.362;6.588;2023-07-13T09:18:59;15.13;;;7.38;;
76765;SDS011;65707;52.362;6.588;2023-07-13T09:21:31;16.33;;;7.53;;
76765;SDS011;65707;52.362;6.588;2023-07-13T09:26:53;17.92;;;7.43;;
76765;SDS011;65707;52.362;6.588;2023-07-13T09:29:23;16.02;;;8.15;;
76765;SDS011;65707;52.362;6.588;2023-07-13T09:31:57;16.65;;;9.38;;
76765;SDS011;65707;52.362;6.588;2023-07-13T09:34:27;16.48;;;8.88;;
76765;SDS011;65707;52.362;6.588;2023-07-13T09:36:55;20.42;;;7.28;;
76765;SDS011;65707;52.362;6.588;2023-07-13T09:39:23;17.48;;;7.63;;
76765;SDS011;65707;52.362;6.588;2023-07-13T09:41:54;19.42;;;7.47;;
76765;SDS011;65707;52.362;6.588;2023-07-13T09:44:28;14.82;;;6.95;;
76765;SDS011;65707;52.362;6.588;2023-07-13T09:46:59;19.30;;;7.13;;
76765;SDS011;65707;52.362;6.588;2023-07-13T09:49:27;14.55;;;6.75;;
76765;SDS011;65707;52.362;6.588;2023-07-13T09:51:58;16.85;;;7.30;;
76765;SDS011;65707;52.362;6.588;2023-07-13T09:54:27;12.05;;;6.32;;
76765;SDS011;65707;52.362;6.588;2023-07-13T09:56:55;16.58;;;7.10;;
76765;SDS011;65707;52.362;6.588;2023-07-13T09:59:23;14.50;;;6.13;;
76765;SDS011;65707;52.362;6.588;2023-07-13T10:01:50;12.73;;;5.95;;
76765;SDS011;65707;52.362;6.588;2023-07-13T10:04:19;15.52;;;5.78;;
76765;SDS011;65707;52.362;6.588;2023-07-13T10:06:46;16.45;;;7.00;;
76765;SDS011;65707;52.362;6.588;2023-07-13T10:09:15;13.77;;;7.30;;
76765;SDS011;65707;52.362;6.588;2023-07-13T10:11:44;16.90;;;6.43;;
76765;SDS011;65707;52.362;6.588;2023-07-13T10:14:12;16.92;;;6.55;;
76765;SDS011;65707;52.362;6.588;2023-07-13T10:16:41;14.55;;;7.13;;
76765;SDS011;65707;52.362;6.588;2023-07-13T10:19:11;17.58;;;6.07;;
76765;SDS011;65707;52.362;6.588;2023-07-13T10:21:45;14.98;;;6.22;;
76765;SDS011;65707;52.362;6.588;2023-07-13T10:24:22;15.40;;;5.53;;
76765;SDS011;65707;52.362;6.588;2023-07-13T10:26:52;14.48;;;7.15;;
76765;SDS011;65707;52.362;6.588;2023-07-13T10:29:23;19.10;;;8.10;;
76765;SDS011;65707;52.362;6.588;2023-07-13T10:31:53;20.20;;;8.38;;
76765;SDS011;65707;52.362;6.588;2023-07-13T10:34:19;21.65;;;8.80;;
76765;SDS011;65707;52.362;6.588;2023-07-13T10:36:48;24.38;;;9.73;;
76765;SDS011;65707;52.362;6.588;2023-07-13T10:39:16;25.20;;;11.27;;
76765;SDS011;65707;52.362;6.588;2023-07-13T10:41:46;23.90;;;11.60;;
76765;SDS011;65707;52.362;6.588;2023-07-13T10:44:21;21.75;;;10.32;;
76765;SDS011;65707;52.362;6.588;2023-07-13T10:46:51;18.77;;;9.68;;
76765;SDS011;65707;52.362;6.588;2023-07-13T10:49:22;23.35;;;10.95;;
76765;SDS011;65707;52.362;6.588;2023-07-13T10:51:51;16.10;;;9.35;;
76765;SDS011;65707;52.362;6.588;2023-07-13T10:54:19;17.45;;;9.20;;
76765;SDS011;65707;52.362;6.588;2023-07-13T10:56:52;23.35;;;9.93;;
76765;SDS011;65707;52.362;6.588;2023-07-13T10:59:32;16.02;;;9.25;;
76765;SDS011;65707;52.362;6.588;2023-07-13T11:02:08;16.00;;;8.35;;
76765;SDS011;65707;52.362;6.588;2023-07-13T11:04:41;15.18;;;8.05;;
76765;SDS011;65707;52.362;6.588;2023-07-13T11:07:18;16.63;;;8.15;;
76765;SDS011;65707;52.362;6.588;2023-07-13T11:09:49;14.80;;;8.02;;
76765;SDS011;65707;52.362;6.588;2023-07-13T11:12:28;14.73;;;7.88;;
76765;SDS011;65707;52.362;6.588;2023-07-13T11:15:11;13.23;;;7.72;;
76765;SDS011;65707;52.362;6.588;2023-07-13T11:17:47;13.82;;;7.68;;
76765;SDS011;65707;52.362;6.588;2023-07-13T11:23:19;12.57;;;6.07;;
76765;SDS011;65707;52.362;6.588;2023-07-13T11:25:53;8.85;;;4.85;;
76765;SDS011;65707;52.362;6.588;2023-07-13T11:28:21;10.60;;;4.47;;
76765;SDS011;65707;52.362;6.588;2023-07-13T11:30:59;9.82;;;4.00;;
76765;SDS011;65707;52.362;6.588;2023-07-13T11:33:51;9.18;;;4.10;;
76765;SDS011;65707;52.362;6.588;2023-07-13T11:36:20;11.35;;;4.50;;
76765;SDS011;65707;52.362;6.588;2023-07-13T11:41:26;8.20;;;3.13;;
76765;SDS011;65707;52.362;6.588;2023-07-13T11:44:04;9.40;;;3.03;;
76765;SDS011;65707;52.362;6.588;2023-07-13T11:46:34;8.68;;;3.00;;
76765;SDS011;65707;52.362;6.588;2023-07-13T11:49:00;10.48;;;3.30;;
76765;SDS011;65707;52.362;6.588;2023-07-13T11:51:31;8.55;;;3.00;;
76765;SDS011;65707;52.362;6.588;2023-07-13T11:54:03;7.07;;;2.20;;
76765;SDS011;65707;52.362;6.588;2023-07-13T11:56:31;6.03;;;1.95;;
76765;SDS011;65707;52.362;6.588;2023-07-13T11:59:04;5.93;;;1.65;;
76765;SDS011;65707;52.362;6.588;2023-07-13T12:01:33;5.07;;;1.80;;
76765;SDS011;65707;52.362;6.588;2023-07-13T12:04:08;6.85;;;2.13;;
76765;SDS011;65707;52.362;6.588;2023-07-13T12:06:46;7.15;;;2.13;;
76765;SDS011;65707;52.362;6.588;2023-07-13T12:09:20;5.90;;;2.10;;
76765;SDS011;65707;52.362;6.588;2023-07-13T12:11:50;7.25;;;2.33;;
76765;SDS011;65707;52.362;6.588;2023-07-13T12:14:17;6.60;;;2.17;;
76765;SDS011;65707;52.362;6.588;2023-07-13T12:16:46;7.40;;;2.30;;
76765;SDS011;65707;52.362;6.588;2023-07-13T12:19:16;6.63;;;2.35;;
76765;SDS011;65707;52.362;6.588;2023-07-13T12:21:46;5.53;;;1.85;;
76765;SDS011;65707;52.362;6.588;2023-07-13T12:24:14;8.13;;;1.90;;
76765;SDS011;65707;52.362;6.588;2023-07-13T12:26:44;5.90;;;1.90;;
76765;SDS011;65707;52.362;6.588;2023-07-13T12:29:16;4.95;;;1.75;;
76765;SDS011;65707;52.362;6.588;2023-07-13T12:31:44;6.75;;;2.00;;
76765;SDS011;65707;52.362;6.588;2023-07-13T12:34:14;7.60;;;1.70;;
76765;SDS011;65707;52.362;6.588;2023-07-13T12:36:45;6.72;;;2.10;;
76765;SDS011;65707;52.362;6.588;2023-07-13T12:39:15;6.72;;;1.80;;
76765;SDS011;65707;52.362;6.588;2023-07-13T12:41:46;11.75;;;2.92;;
76765;SDS011;65707;52.362;6.588;2023-07-13T12:44:16;23.23;;;4.30;;
76765;SDS011;65707;52.362;6.588;2023-07-13T12:49:18;8.82;;;2.80;;
76765;SDS011;65707;52.362;6.588;2023-07-13T12:51:55;9.07;;;2.97;;
76765;SDS011;65707;52.362;6.588;2023-07-13T12:54:23;12.85;;;3.80;;
76765;SDS011;65707;52.362;6.588;2023-07-13T12:56:51;10.60;;;3.85;;
76765;SDS011;65707;52.362;6.588;2023-07-13T12:59:22;11.70;;;3.95;;
76765;SDS011;65707;52.362;6.588;2023-07-13T13:01:51;7.93;;;3.83;;
76765;SDS011;65707;52.362;6.588;2023-07-13T13:04:19;11.38;;;4.28;;
76765;SDS011;65707;52.362;6.588;2023-07-13T13:06:47;10.82;;;4.28;;
76765;SDS011;65707;52.362;6.588;2023-07-13T13:09:16;9.18;;;3.33;;
76765;SDS011;65707;52.362;6.588;2023-07-13T13:11:45;8.60;;;3.42;;
76765;SDS011;65707;52.362;6.588;2023-07-13T13:14:13;7.90;;;2.65;;
76765;SDS011;65707;52.362;6.588;2023-07-13T13:16:44;6.15;;;2.08;;
76765;SDS011;65707;52.362;6.588;2023-07-13T13:19:14;7.63;;;2.65;;
76765;SDS011;65707;52.362;6.588;2023-07-13T13:21:44;8.60;;;2.80;;
76765;SDS011;65707;52.362;6.588;2023-07-13T13:24:11;7.55;;;2.60;;
76765;SDS011;65707;52.362;6.588;2023-07-13T13:26:39;8.13;;;2.30;;
76765;SDS011;65707;52.362;6.588;2023-07-13T13:29:10;7.68;;;2.30;;
76765;SDS011;65707;52.362;6.588;2023-07-13T13:31:41;5.95;;;1.92;;
76765;SDS011;65707;52.362;6.588;2023-07-13T13:34:09;6.65;;;2.10;;
76765;SDS011;65707;52.362;6.588;2023-07-13T13:36:37;9.02;;;2.35;;
76765;SDS011;65707;52.362;6.588;2023-07-13T13:39:05;9.13;;;2.42;;
76765;SDS011;65707;52.362;6.588;2023-07-13T13:41:42;8.93;;;2.45;;
76765;SDS011;65707;52.362;6.588;2023-07-13T13:44:09;6.47;;;2.08;;
76765;SDS011;65707;52.362;6.588;2023-07-13T13:46:37;6.43;;;2.17;;
76765;SDS011;65707;52.362;6.588;2023-07-13T13:49:04;7.47;;;2.60;;
76765;SDS011;65707;52.362;6.588;2023-07-13T13:51:31;8.02;;;2.28;;
76765;SDS011;65707;52.362;6.588;2023-07-13T13:53:58;8.10;;;2.65;;
76765;SDS011;65707;52.362;6.588;2023-07-13T13:56:26;7.20;;;2.33;;
76765;SDS011;65707;52.362;6.588;2023-07-13T13:58:53;8.30;;;2.63;;
76765;SDS011;65707;52.362;6.588;2023-07-13T14:01:20;8.38;;;2.70;;
76765;SDS011;65707;52.362;6.588;2023-07-13T14:03:50;7.47;;;2.42;;
76765;SDS011;65707;52.362;6.588;2023-07-13T14:06:17;7.40;;;2.90;;
76765;SDS011;65707;52.362;6.588;2023-07-13T14:08:44;7.82;;;2.60;;
76765;SDS011;65707;52.362;6.588;2023-07-13T14:11:12;8.60;;;3.03;;
76765;SDS011;65707;52.362;6.588;2023-07-13T14:13:42;8.52;;;3.22;;
76765;SDS011;65707;52.362;6.588;2023-07-13T14:16:12;8.95;;;2.92;;
76765;SDS011;65707;52.362;6.588;2023-07-13T14:18:42;8.73;;;3.13;;
76765;SDS011;65707;52.362;6.588;2023-07-13T14:21:12;10.15;;;3.08;;
76765;SDS011;65707;52.362;6.588;2023-07-13T14:23:40;10.55;;;2.72;;
76765;SDS011;65707;52.362;6.588;2023-07-13T14:26:09;7.80;;;3.15;;
76765;SDS011;65707;52.362;6.588;2023-07-13T14:28:38;10.25;;;3.22;;
76765;SDS011;65707;52.362;6.588;2023-07-13T14:31:09;9.88;;;3.20;;
76765;SDS011;65707;52.362;6.588;2023-07-13T14:33:36;7.50;;;2.58;;
76765;SDS011;65707;52.362;6.588;2023-07-13T14:36:03;6.90;;;2.72;;
76765;SDS011;65707;52.362;6.588;2023-07-13T14:38:53;7.25;;;2.95;;
76765;SDS011;65707;52.362;6.588;2023-07-13T14:41:19;7.47;;;2.75;;
76765;SDS011;65707;52.362;6.588;2023-07-13T14:43:46;7.65;;;2.80;;
76765;SDS011;65707;52.362;6.588;2023-07-13T14:46:18;8.95;;;2.83;;
76765;SDS011;65707;52.362;6.588;2023-07-13T14:48:53;9.75;;;2.70;;
76765;SDS011;65707;52.362;6.588;2023-07-13T14:51:28;8.93;;;2.40;;
76765;SDS011;65707;52.362;6.588;2023-07-13T14:53:56;6.78;;;2.70;;
76765;SDS011;65707;52.362;6.588;2023-07-13T14:56:22;7.15;;;2.60;;
76765;SDS011;65707;52.362;6.588;2023-07-13T14:58:49;7.85;;;2.45;;
76765;SDS011;65707;52.362;6.588;2023-07-13T15:01:18;12.00;;;2.60;;